createdAt,value
2022-10-17T00:01:39.037Z,19.10
2022-10-17T00:04:06.328Z,16.48
2022-10-17T00:06:33.536Z,18.42
2022-10-17T00:09:00.750Z,20.05
2022-10-17T00:11:28.015Z,19.88
2022-10-17T00:13:55.684Z,21.65
2022-10-17T00:16:26.651Z,17.50
2022-10-17T00:18:53.992Z,19.83
2022-10-17T00:21:21.504Z,21.25
2022-10-17T00:23:48.722Z,18.23
2022-10-17T00:26:16.183Z,19.27
2022-10-17T00:28:43.642Z,19.52
2022-10-17T00:31:10.889Z,17.85
2022-10-17T00:33:39.274Z,16.48
2022-10-17T00:36:11.274Z,17.17
2022-10-17T00:38:38.488Z,18.52
2022-10-17T00:41:05.866Z,17.63
2022-10-17T00:43:51.476Z,19.42
2022-10-17T00:46:18.712Z,19.98
2022-10-17T00:48:45.933Z,21.92
2022-10-17T00:51:13.126Z,19.33
2022-10-17T00:53:40.377Z,20.65
2022-10-17T00:56:07.645Z,18.77
2022-10-17T00:58:34.845Z,23.30
2022-10-17T01:01:02.690Z,19.48
2022-10-17T01:03:29.965Z,20.02
2022-10-17T01:05:57.282Z,22.00
2022-10-17T01:08:24.510Z,25.45
2022-10-17T01:10:51.737Z,16.60
2022-10-17T01:13:22.287Z,15.75
2022-10-17T01:15:49.507Z,19.50
2022-10-17T01:18:33.995Z,16.98
2022-10-17T01:21:20.051Z,16.67
2022-10-17T01:24:01.845Z,19.58
2022-10-17T01:26:47.826Z,20.20
2022-10-17T01:29:35.303Z,20.27
2022-10-17T01:32:08.049Z,17.13
2022-10-17T01:35:01.555Z,21.00
2022-10-17T01:37:33.276Z,18.10
2022-10-17T01:40:00.457Z,19.38
2022-10-17T01:42:27.891Z,18.30
2022-10-17T01:45:18.594Z,15.93
2022-10-17T01:47:45.786Z,20.13
2022-10-17T01:50:39.398Z,16.50
2022-10-17T01:53:11.653Z,19.27
2022-10-17T01:55:40.457Z,20.70
2022-10-17T01:58:08.703Z,17.50
2022-10-17T02:00:37.660Z,20.13
2022-10-17T02:03:08.481Z,21.33
2022-10-17T02:05:39.705Z,49.75
2022-10-17T02:08:07.277Z,62.50
2022-10-17T02:10:39.536Z,52.55
2022-10-17T02:13:25.554Z,57.47
2022-10-17T02:15:52.771Z,50.83
2022-10-17T02:18:38.522Z,34.80
2022-10-17T02:21:35.160Z,34.95
2022-10-17T02:24:16.187Z,60.08
2022-10-17T02:26:53.497Z,62.58
2022-10-17T02:29:22.047Z,62.92
2022-10-17T02:31:55.310Z,69.47
2022-10-17T02:34:23.571Z,41.15
2022-10-17T02:36:51.881Z,46.90
2022-10-17T02:39:19.925Z,43.53
2022-10-17T02:41:47.152Z,29.42
2022-10-17T02:44:14.372Z,26.67
2022-10-17T02:46:41.615Z,30.65
2022-10-17T02:49:13.734Z,52.08
2022-10-17T02:51:40.940Z,65.47
2022-10-17T02:54:27.041Z,59.90
2022-10-17T02:56:55.860Z,55.92
2022-10-17T02:59:23.395Z,40.65
2022-10-17T03:01:51.649Z,34.28
2022-10-17T03:04:19.005Z,35.38
2022-10-17T03:06:47.175Z,38.30
2022-10-17T03:09:14.410Z,33.05
2022-10-17T03:11:41.646Z,31.92
2022-10-17T03:14:08.861Z,29.25
2022-10-17T03:16:36.082Z,34.38
2022-10-17T03:19:03.350Z,41.05
2022-10-17T03:21:30.560Z,41.70
2022-10-17T03:23:57.779Z,37.95
2022-10-17T03:26:25.135Z,31.08
2022-10-17T03:28:54.471Z,34.38
2022-10-17T03:31:22.038Z,45.78
2022-10-17T03:33:49.296Z,59.28
2022-10-17T03:36:17.208Z,44.30
2022-10-17T03:38:44.577Z,36.45
2022-10-17T03:41:11.791Z,35.15
2022-10-17T03:43:39.754Z,37.78
2022-10-17T03:46:07.221Z,51.17
2022-10-17T03:48:34.566Z,42.83
2022-10-17T03:51:02.302Z,44.13
2022-10-17T03:53:29.653Z,42.35
2022-10-17T03:55:57.712Z,37.33
2022-10-17T03:58:24.924Z,37.20
2022-10-17T04:00:52.542Z,38.03
2022-10-17T04:03:19.761Z,44.30
2022-10-17T04:05:46.988Z,45.63
2022-10-17T04:08:14.205Z,46.65
2022-10-17T04:10:41.431Z,42.90
2022-10-17T04:13:08.651Z,33.28
2022-10-17T04:15:35.890Z,35.75
2022-10-17T04:18:03.152Z,34.67
2022-10-17T04:20:30.354Z,32.40
2022-10-17T04:22:57.694Z,33.60
2022-10-17T04:25:24.906Z,30.17
2022-10-17T04:27:52.101Z,31.60
2022-10-17T04:30:19.324Z,29.95
2022-10-17T04:32:46.617Z,29.92
2022-10-17T04:35:13.912Z,26.88
2022-10-17T04:37:41.140Z,28.00
2022-10-17T04:40:08.722Z,32.30
2022-10-17T04:42:35.915Z,32.08
2022-10-17T04:45:03.171Z,35.83
2022-10-17T04:47:30.369Z,38.50
2022-10-17T04:49:57.610Z,40.75
2022-10-17T04:52:25.780Z,38.22
2022-10-17T04:54:53.037Z,36.55
2022-10-17T04:57:20.378Z,37.03
2022-10-17T04:59:47.602Z,37.63
2022-10-17T05:02:14.841Z,35.90
2022-10-17T05:04:42.100Z,32.22
2022-10-17T05:07:09.444Z,32.67
2022-10-17T05:09:36.633Z,31.92
2022-10-17T05:12:06.634Z,36.20
2022-10-17T05:14:36.758Z,34.92
2022-10-17T05:17:03.963Z,38.00
2022-10-17T05:19:31.172Z,45.70
2022-10-17T05:21:58.418Z,47.70
2022-10-17T05:24:25.628Z,44.53
2022-10-17T05:26:52.882Z,55.47
2022-10-17T05:29:20.114Z,48.30
2022-10-17T05:31:47.319Z,50.47
2022-10-17T05:34:14.622Z,45.30
2022-10-17T05:36:41.885Z,49.60
2022-10-17T05:39:09.111Z,49.45
2022-10-17T05:41:36.320Z,55.30
2022-10-17T05:44:05.515Z,57.22
2022-10-17T05:46:33.061Z,55.03
2022-10-17T05:49:00.260Z,55.15
2022-10-17T05:51:27.596Z,53.45
2022-10-17T05:53:54.954Z,51.92
2022-10-17T05:56:22.278Z,51.15
2022-10-17T05:58:51.613Z,52.17
2022-10-17T06:01:19.807Z,56.50
2022-10-17T06:03:47.050Z,63.17
2022-10-17T06:06:14.682Z,56.78
2022-10-17T06:08:41.947Z,52.63
2022-10-17T06:11:10.319Z,58.88
2022-10-17T06:13:38.229Z,62.45
2022-10-17T06:16:05.586Z,62.92
2022-10-17T06:18:32.872Z,69.57
2022-10-17T06:21:07.061Z,63.08
2022-10-17T06:23:34.282Z,64.15
2022-10-17T06:26:01.809Z,88.95
2022-10-17T06:28:29.208Z,89.95
2022-10-17T06:30:56.534Z,91.95
2022-10-17T06:33:23.889Z,87.70
2022-10-17T06:35:54.350Z,78.47
2022-10-17T06:38:21.551Z,87.22
2022-10-17T06:40:48.853Z,65.82
2022-10-17T06:43:16.112Z,70.28
2022-10-17T06:45:43.317Z,76.28
2022-10-17T06:48:10.574Z,59.25
2022-10-17T06:50:37.817Z,52.55
2022-10-17T06:53:05.087Z,54.92
2022-10-17T06:55:32.800Z,59.58
2022-10-17T06:58:00.037Z,57.42
2022-10-17T07:00:27.240Z,56.97
2022-10-17T07:02:54.483Z,50.90
2022-10-17T07:05:21.807Z,45.75
2022-10-17T07:07:51.028Z,43.17
2022-10-17T07:10:19.204Z,47.08
2022-10-17T07:12:46.485Z,41.28
2022-10-17T07:15:13.726Z,36.22
2022-10-17T07:17:40.917Z,37.45
2022-10-17T07:20:08.493Z,38.25
2022-10-17T07:22:35.747Z,38.00
2022-10-17T07:25:03.214Z,37.42
2022-10-17T07:27:30.838Z,30.95
2022-10-17T07:29:58.360Z,34.88
2022-10-17T07:32:25.577Z,31.83
2022-10-17T07:34:52.826Z,31.17
2022-10-17T07:37:20.026Z,32.67
2022-10-17T07:39:47.230Z,171.80
2022-10-17T07:42:14.666Z,94.32
2022-10-17T07:44:42.063Z,37.88
2022-10-17T07:47:09.346Z,24.42
2022-10-17T07:49:42.414Z,25.25
2022-10-17T07:52:12.932Z,20.48
2022-10-17T07:54:40.199Z,20.80
2022-10-17T07:57:07.570Z,17.13
2022-10-17T07:59:35.042Z,17.55
2022-10-17T08:02:02.229Z,19.67
2022-10-17T08:04:29.544Z,21.92
2022-10-17T08:07:11.665Z,25.45
2022-10-17T08:09:44.441Z,25.55
2022-10-17T08:12:11.660Z,21.67
2022-10-17T08:14:39.853Z,17.40
2022-10-17T08:17:07.074Z,19.15
2022-10-17T08:19:34.266Z,26.50
2022-10-17T08:22:02.216Z,21.25
2022-10-17T08:24:29.489Z,17.48
2022-10-17T08:26:58.327Z,21.45
2022-10-17T08:29:25.579Z,21.40
2022-10-17T08:31:56.284Z,16.02
2022-10-17T08:34:28.247Z,14.63
2022-10-17T08:36:55.499Z,12.88
2022-10-17T08:39:22.765Z,12.25
2022-10-17T08:42:08.453Z,12.65
2022-10-17T08:44:35.658Z,13.32
2022-10-17T08:47:03.506Z,9.73
2022-10-17T08:49:52.501Z,10.40
2022-10-17T08:52:38.351Z,9.32
2022-10-17T08:55:06.042Z,14.23
2022-10-17T08:57:33.518Z,8.27
2022-10-17T09:00:01.003Z,10.98
2022-10-17T09:02:47.444Z,12.93
2022-10-17T09:05:14.668Z,9.77
2022-10-17T09:07:47.036Z,9.73
2022-10-17T09:10:29.696Z,9.13
2022-10-17T09:13:12.161Z,8.45
2022-10-17T09:15:39.440Z,8.43
2022-10-17T09:18:12.837Z,8.88
2022-10-17T09:20:47.116Z,10.35
2022-10-17T09:23:17.309Z,8.38
2022-10-17T09:25:53.153Z,8.57
2022-10-17T09:28:30.514Z,14.98
2022-10-17T09:31:02.481Z,7.72
2022-10-17T09:33:53.264Z,8.30
2022-10-17T09:36:19.618Z,8.27
2022-10-17T09:38:56.675Z,8.75
2022-10-17T09:41:51.011Z,9.65
2022-10-17T09:44:18.314Z,8.48
2022-10-17T09:47:05.785Z,10.23
2022-10-17T09:49:34.204Z,8.15
2022-10-17T09:52:02.089Z,8.13
2022-10-17T09:54:49.597Z,10.82
2022-10-17T09:57:17.137Z,9.30
2022-10-17T09:59:45.670Z,49.83
2022-10-17T10:02:20.400Z,11.50
2022-10-17T10:05:06.402Z,8.90
2022-10-17T10:07:35.227Z,9.82
2022-10-17T10:10:03.258Z,10.13
2022-10-17T10:12:34.368Z,9.77
2022-10-17T10:15:01.666Z,8.95
2022-10-17T10:17:42.003Z,9.07
2022-10-17T10:20:35.474Z,9.38
2022-10-17T10:23:06.552Z,10.73
2022-10-17T10:25:33.898Z,10.80
2022-10-17T10:28:01.628Z,10.18
2022-10-17T10:30:32.812Z,9.93
2022-10-17T10:33:01.995Z,9.93
2022-10-17T10:35:36.205Z,9.50
2022-10-17T10:38:04.962Z,8.40
2022-10-17T10:40:47.442Z,9.52
2022-10-17T10:43:22.548Z,8.10
2022-10-17T10:45:49.865Z,9.93
2022-10-17T10:48:46.575Z,6.88
2022-10-17T10:51:14.927Z,8.88
2022-10-17T10:53:42.128Z,7.00
2022-10-17T10:56:11.747Z,7.35
2022-10-17T10:58:57.562Z,7.88
2022-10-17T11:01:27.842Z,7.07
2022-10-17T11:03:55.354Z,6.50
2022-10-17T11:06:34.392Z,6.90
2022-10-17T11:09:20.333Z,7.70
2022-10-17T11:11:54.202Z,6.28
2022-10-17T11:14:33.644Z,9.07
2022-10-17T11:17:10.972Z,6.88
2022-10-17T11:19:40.303Z,6.55
2022-10-17T11:22:28.925Z,6.50
2022-10-17T11:24:57.214Z,7.68
2022-10-17T11:27:24.899Z,7.00
2022-10-17T11:29:52.217Z,6.57
2022-10-17T11:32:48.865Z,8.52
2022-10-17T11:35:16.154Z,7.10
2022-10-17T11:37:48.389Z,7.00
2022-10-17T11:40:19.268Z,6.40
2022-10-17T11:42:53.371Z,7.30
2022-10-17T11:45:21.077Z,6.03
2022-10-17T11:47:54.149Z,6.40
2022-10-17T11:53:13.289Z,7.35
2022-10-17T11:55:40.560Z,5.88
2022-10-17T11:58:10.939Z,7.03
2022-10-17T12:00:50.235Z,8.02
2022-10-17T12:03:24.118Z,8.90
2022-10-17T12:05:54.793Z,5.63
2022-10-17T12:08:39.229Z,5.30
2022-10-17T12:11:25.034Z,5.88
2022-10-17T12:13:53.490Z,4.60
2022-10-17T12:16:20.709Z,5.25
2022-10-17T12:19:08.196Z,7.85
2022-10-17T12:21:54.077Z,4.15
2022-10-17T12:24:42.159Z,3.85
2022-10-17T12:27:28.338Z,4.05
2022-10-17T12:30:04.863Z,4.32
2022-10-17T12:32:47.003Z,4.60
2022-10-17T12:35:23.118Z,5.90
2022-10-17T12:37:50.307Z,4.07
2022-10-17T12:40:52.568Z,3.90
2022-10-17T12:43:29.150Z,4.30
2022-10-17T12:46:00.005Z,6.25
2022-10-17T12:48:39.670Z,3.90
2022-10-17T12:54:01.237Z,4.43
2022-10-17T12:56:38.481Z,5.35
2022-10-17T12:59:10.048Z,6.13
2022-10-17T13:01:38.006Z,4.85
2022-10-17T13:04:06.646Z,5.18
2022-10-17T13:06:37.839Z,4.80
2022-10-17T13:09:23.594Z,5.50
2022-10-17T13:11:50.896Z,4.93
2022-10-17T13:14:18.383Z,5.10
2022-10-17T13:16:54.737Z,5.25
2022-10-17T13:19:23.738Z,5.03
2022-10-17T13:22:06.326Z,5.85
2022-10-17T13:24:37.655Z,4.75
2022-10-17T13:27:05.049Z,5.50
2022-10-17T13:29:32.975Z,6.65
2022-10-17T13:32:04.159Z,7.30
2022-10-17T13:34:31.977Z,7.10
2022-10-17T13:37:00.219Z,6.15
2022-10-17T13:39:44.976Z,5.30
2022-10-17T13:42:25.784Z,4.65
2022-10-17T13:44:52.983Z,5.35
2022-10-17T13:47:30.262Z,5.25
2022-10-17T13:49:57.488Z,4.57
2022-10-17T13:52:25.739Z,4.70
2022-10-17T13:54:53.935Z,4.90
2022-10-17T13:57:22.674Z,8.73
2022-10-17T13:59:50.963Z,5.28
2022-10-17T14:02:20.018Z,4.97
2022-10-17T14:08:09.987Z,5.80
2022-10-17T14:10:36.980Z,5.18
2022-10-17T14:13:04.501Z,6.07
2022-10-17T14:15:32.313Z,5.30
2022-10-17T14:18:07.556Z,7.35
2022-10-17T14:21:08.265Z,8.27
2022-10-17T14:23:28.936Z,6.82
2022-10-17T14:26:12.882Z,8.48
2022-10-17T14:28:40.422Z,7.43
2022-10-17T14:31:14.249Z,9.27
2022-10-17T14:33:46.870Z,7.70
2022-10-17T14:36:16.898Z,6.20
2022-10-17T14:38:48.168Z,8.40
2022-10-17T14:44:22.097Z,8.90
2022-10-17T14:46:51.127Z,5.80
2022-10-17T14:49:24.669Z,6.90
2022-10-17T14:52:13.689Z,6.20
2022-10-17T14:54:47.962Z,8.77
2022-10-17T14:57:19.203Z,9.50
2022-10-17T14:59:55.118Z,8.15
2022-10-17T15:02:23.292Z,22.70
2022-10-17T15:04:50.512Z,20.75
2022-10-17T15:07:18.039Z,22.67
2022-10-17T15:09:45.589Z,24.42
2022-10-17T15:12:14.020Z,24.10
2022-10-17T15:14:41.281Z,22.48
2022-10-17T15:17:15.379Z,24.52
2022-10-17T15:19:42.628Z,17.83
2022-10-17T15:22:09.889Z,22.40
2022-10-17T15:24:37.138Z,22.20
2022-10-17T15:27:04.397Z,25.42
2022-10-17T15:29:31.585Z,35.60
2022-10-17T15:31:58.824Z,35.08
2022-10-17T15:34:26.048Z,31.27
2022-10-17T15:36:54.053Z,30.40
2022-10-17T15:39:21.411Z,25.58
2022-10-17T15:41:48.721Z,23.83
2022-10-17T15:44:15.993Z,20.70
2022-10-17T15:46:43.238Z,21.95
2022-10-17T15:49:14.282Z,22.42
2022-10-17T15:51:41.556Z,22.73
2022-10-17T15:54:08.836Z,25.40
2022-10-17T15:56:39.879Z,34.17
2022-10-17T15:59:08.130Z,33.33
2022-10-17T16:01:35.377Z,32.40
2022-10-17T16:04:02.730Z,38.28
2022-10-17T16:06:29.992Z,41.83
2022-10-17T16:08:57.234Z,42.72
2022-10-17T16:11:34.420Z,55.00
2022-10-17T16:14:02.304Z,55.42
2022-10-17T16:16:29.595Z,49.53
2022-10-17T16:18:56.875Z,49.92
2022-10-17T16:21:26.112Z,43.47
2022-10-17T16:23:53.470Z,38.97
2022-10-17T16:26:20.796Z,38.85
2022-10-17T16:28:48.092Z,43.80
2022-10-17T16:31:25.891Z,49.17
2022-10-17T16:33:53.724Z,52.47
2022-10-17T16:36:21.113Z,59.60
2022-10-17T16:38:49.048Z,59.60
2022-10-17T16:41:32.445Z,57.38
2022-10-17T16:44:00.303Z,65.15
2022-10-17T16:46:27.990Z,72.60
2022-10-17T16:48:55.340Z,73.03
2022-10-17T16:51:22.599Z,71.95
2022-10-17T16:53:50.699Z,70.72
2022-10-17T16:56:18.844Z,59.30
2022-10-17T16:58:46.194Z,64.03
2022-10-17T17:01:17.782Z,80.63
2022-10-17T17:03:45.611Z,91.25
2022-10-17T17:06:13.607Z,85.38
2022-10-17T17:08:40.860Z,73.60
2022-10-17T17:11:08.484Z,71.38
2022-10-17T17:13:35.830Z,66.78
2022-10-17T17:16:13.100Z,67.70
2022-10-17T17:18:40.326Z,62.15
2022-10-17T17:21:07.937Z,73.30
2022-10-17T17:23:36.007Z,57.80
2022-10-17T17:26:04.785Z,40.90
2022-10-17T17:28:32.086Z,41.30
2022-10-17T17:30:59.651Z,39.75
2022-10-17T17:33:30.426Z,42.85
2022-10-17T17:35:58.124Z,62.85
2022-10-17T17:38:25.689Z,63.38
2022-10-17T17:40:52.980Z,70.28
2022-10-17T17:43:20.427Z,97.32
2022-10-17T17:45:48.167Z,136.95
2022-10-17T17:48:15.601Z,126.53
2022-10-17T17:50:42.986Z,124.28
2022-10-17T17:53:10.474Z,120.00
2022-10-17T17:55:37.866Z,121.07
2022-10-17T17:58:05.230Z,91.80
2022-10-17T18:00:32.532Z,91.53
2022-10-17T18:02:59.887Z,66.47
2022-10-17T18:05:27.165Z,75.53
2022-10-17T18:07:54.497Z,72.03
2022-10-17T18:10:21.791Z,72.38
2022-10-17T18:12:48.995Z,81.10
2022-10-17T18:15:16.276Z,89.55
2022-10-17T18:17:43.679Z,77.07
2022-10-17T18:20:11.123Z,87.72
2022-10-17T18:22:38.397Z,74.35
2022-10-17T18:25:06.692Z,78.82
2022-10-17T18:27:33.982Z,83.47
2022-10-17T18:30:01.225Z,64.43
2022-10-17T18:32:30.843Z,72.55
2022-10-17T18:34:58.605Z,89.30
2022-10-17T18:37:25.932Z,72.03
2022-10-17T18:39:55.352Z,81.35
2022-10-17T18:42:22.631Z,71.10
2022-10-17T18:44:50.049Z,67.50
2022-10-17T18:47:17.282Z,67.63
2022-10-17T18:49:44.482Z,53.42
2022-10-17T18:52:11.756Z,53.30
2022-10-17T18:54:38.946Z,39.17
2022-10-17T18:57:06.198Z,40.45
2022-10-17T18:59:33.879Z,34.60
2022-10-17T19:02:01.215Z,30.02
2022-10-17T19:04:28.519Z,40.72
2022-10-17T19:06:55.788Z,47.70
2022-10-17T19:09:22.996Z,43.92
2022-10-17T19:11:50.286Z,49.38
2022-10-17T19:14:17.602Z,54.35
2022-10-17T19:16:46.077Z,58.60
2022-10-17T19:19:14.756Z,54.72
2022-10-17T19:21:42.168Z,42.28
2022-10-17T19:24:11.468Z,38.75
2022-10-17T19:26:39.935Z,33.63
2022-10-17T19:29:07.284Z,30.60
2022-10-17T19:31:35.553Z,32.47
2022-10-17T19:34:02.846Z,26.88
2022-10-17T19:36:33.623Z,37.75
2022-10-17T19:39:01.838Z,42.95
2022-10-17T19:41:29.165Z,42.92
2022-10-17T19:43:56.438Z,35.90
2022-10-17T19:46:24.886Z,37.55
2022-10-17T19:48:52.388Z,36.22
2022-10-17T19:51:20.287Z,37.72
2022-10-17T19:53:47.652Z,34.38
2022-10-17T19:56:18.549Z,33.35
2022-10-17T19:58:46.670Z,27.35
2022-10-17T20:01:15.300Z,30.48
2022-10-17T20:03:42.590Z,26.17
2022-10-17T20:06:09.970Z,27.15
2022-10-17T20:08:37.934Z,26.10
2022-10-17T20:11:05.909Z,21.55
2022-10-17T20:13:33.186Z,28.05
2022-10-17T20:16:00.426Z,31.45
2022-10-17T20:18:27.944Z,26.05
2022-10-17T20:20:55.299Z,25.00
2022-10-17T20:23:22.766Z,22.92
2022-10-17T20:26:06.626Z,26.33
2022-10-17T20:28:40.847Z,32.75
2022-10-17T20:31:08.538Z,28.05
2022-10-17T20:33:35.787Z,28.42
2022-10-17T20:36:06.567Z,30.70
2022-10-17T20:38:33.797Z,30.20
2022-10-17T20:41:02.518Z,30.08
2022-10-17T20:43:29.699Z,29.83
2022-10-17T20:46:04.520Z,33.95
2022-10-17T20:48:37.533Z,35.50
2022-10-17T20:51:10.869Z,30.10
2022-10-17T20:53:38.122Z,33.25
2022-10-17T20:56:09.182Z,30.98
2022-10-17T20:58:36.502Z,24.13
2022-10-17T21:01:10.041Z,20.55
2022-10-17T21:03:43.814Z,27.05
2022-10-17T21:06:13.617Z,25.20
2022-10-17T21:08:40.824Z,29.20
2022-10-17T21:11:15.143Z,45.90
2022-10-17T21:13:42.363Z,31.50
2022-10-17T21:16:10.448Z,38.25
2022-10-17T21:18:37.670Z,31.23
2022-10-17T21:21:25.014Z,31.42
2022-10-17T21:23:52.210Z,31.02
2022-10-17T21:26:19.587Z,32.20
2022-10-17T21:28:47.179Z,28.98
2022-10-17T21:31:24.214Z,29.63
2022-10-17T21:33:52.553Z,35.90
2022-10-17T21:36:20.009Z,27.75
2022-10-17T21:38:47.597Z,27.90
2022-10-17T21:41:17.118Z,36.25
2022-10-17T21:43:44.317Z,36.00
2022-10-17T21:46:12.597Z,35.92
2022-10-17T21:48:39.796Z,42.60
2022-10-17T21:51:08.414Z,47.05
2022-10-17T21:53:35.611Z,53.78
2022-10-17T21:56:03.095Z,53.40
2022-10-17T21:58:30.309Z,40.33
2022-10-17T22:01:08.162Z,46.47
2022-10-17T22:03:35.776Z,49.10
2022-10-17T22:06:13.030Z,57.35
2022-10-17T22:08:50.624Z,55.72
2022-10-17T22:11:21.852Z,55.97
2022-10-17T22:13:48.980Z,51.95
2022-10-17T22:16:16.730Z,33.10
2022-10-17T22:18:43.968Z,30.60
2022-10-17T22:21:14.769Z,30.42
2022-10-17T22:23:42.292Z,29.65
2022-10-17T22:26:09.506Z,27.98
2022-10-17T22:28:36.656Z,25.45
2022-10-17T22:31:04.025Z,23.85
2022-10-17T22:33:34.623Z,35.25
2022-10-17T22:36:01.751Z,27.48
2022-10-17T22:38:28.904Z,29.35
2022-10-17T22:40:55.987Z,30.27
2022-10-17T22:43:23.087Z,29.15
2022-10-17T22:46:05.868Z,28.00
2022-10-17T22:48:41.669Z,25.92
2022-10-17T22:51:08.979Z,27.88
2022-10-17T22:53:37.331Z,33.88
2022-10-17T22:56:04.540Z,39.83
2022-10-17T22:58:32.429Z,34.00
2022-10-17T23:00:59.638Z,32.75
2022-10-17T23:03:27.505Z,26.38
2022-10-17T23:05:54.918Z,24.30
2022-10-17T23:08:22.073Z,19.15
2022-10-17T23:10:49.253Z,26.23
2022-10-17T23:13:16.860Z,29.70
2022-10-17T23:15:44.051Z,20.52
2022-10-17T23:18:11.356Z,23.10
2022-10-17T23:20:38.609Z,22.58
2022-10-17T23:23:05.714Z,14.20
2022-10-17T23:25:33.854Z,14.70
2022-10-17T23:28:01.097Z,13.75
2022-10-17T23:30:28.275Z,12.70
2022-10-17T23:32:55.407Z,11.00
2022-10-17T23:35:22.562Z,15.27
2022-10-17T23:37:49.672Z,14.65
2022-10-17T23:40:16.811Z,14.50
2022-10-17T23:42:44.107Z,19.58
2022-10-17T23:45:11.549Z,23.63
2022-10-17T23:47:38.655Z,14.73
2022-10-17T23:50:06.062Z,17.67
2022-10-17T23:52:33.197Z,18.55
2022-10-17T23:55:00.355Z,19.90
2022-10-17T23:57:27.508Z,11.30
2022-10-17T23:59:55.469Z,15.68
